aviador You're here:

RODN Decoded Metar

KADENA in JAPAN
Report Time2017-11-23 02:56:00
UTC Time2017-11-23 03:47:35
Flight Rules vfr VFR
Wind010° at 16 Gusting to 24 kt
W.Decomp.*RWY 05: 12.9 kt HW 9.4 kt LCW
W.Rank010° ranks 6
Current wind is above 010° avg. (8.8)
Visibility9999 m
Phenomena:N/A
Clouds:Few 030 Hf
Scattered 036 Hf
Broken 045 Hf
Expected CloudBase > 2,400 ft AGL from Temp-Dew spread
Ceiling4,500 ft
Temp20°C (ISA +5)
Dew Point14°C (69% RH)
AAT15.5°C
QNH1018 hPa
Density Alt814 ft
Elevation148 ft
Report Wrong Elevation
Raw Report
RODN 230256Z AUTO 01016G24KT 10SM FEW030 SCT036 BKN045 20/14 A3005
RMK AO2 SLP182 T02030140 50002=

Extra information for RODN:More info

Metar Taf Metar & Taf Last 4 Metars F.Rules Stats Wind Profile Meteogram Temp Stats Airport Information Weather charts Add Link Nearby VenuesMetar ALERT Operation Metar Decoded Social comments